Conceicao da Aparecida, Brazil
Current Conditions -  °F | °C
As of 7:00 AM on Friday 31 Oct 2014 (Local Time) from SBYS Reporting Station
Broken Clouds Broken Clouds  
Wind Chill: 72°   Ceiling: 7000
Heat Index: 72°   Visibility: 6mi
Dew Point: 63°   Wind: 5mph
Humidity: 73%   Direction: 10°N
Pressure: 30"   Gusts: NA
Location:  21.09°S, 46.2°W
Report Text: SBYS 310900Z 01004KT 9999 SCT030 BKN070 22/17 Q1016
Loading
Personal Weather Stations






























Interactive Weather Map
Tropical Storm Tracking
New forecast layout! Learn more

10-Day Weather Forecast

Advertisements
Track Severe Weather on mobile